sensor_id;sensor_type;location;lat;lon;timestamp;temperature;humidity
20370;DHT22;10344;47.592;9.600;2023-07-31T00:00:38;17.80;99.90
20370;DHT22;10344;47.592;9.600;2023-07-31T00:03:06;17.80;99.90
20370;DHT22;10344;47.592;9.600;2023-07-31T00:05:31;17.80;99.90
20370;DHT22;10344;47.592;9.600;2023-07-31T00:07:57;17.80;99.90
20370;DHT22;10344;47.592;9.600;2023-07-31T00:10:22;17.80;99.90
20370;DHT22;10344;47.592;9.600;2023-07-31T00:12:50;17.90;99.90
20370;DHT22;10344;47.592;9.600;2023-07-31T00:15:16;17.90;99.90
20370;DHT22;10344;47.592;9.600;2023-07-31T00:17:41;17.80;99.90
20370;DHT22;10344;47.592;9.600;2023-07-31T00:20:10;17.80;99.90
20370;DHT22;10344;47.592;9.600;2023-07-31T00:22:38;17.70;99.90
20370;DHT22;10344;47.592;9.600;2023-07-31T00:25:04;17.70;99.90
20370;DHT22;10344;47.592;9.600;2023-07-31T00:27:32;17.70;99.90
20370;DHT22;10344;47.592;9.600;2023-07-31T00:29:58;17.80;99.90
20370;DHT22;10344;47.592;9.600;2023-07-31T00:32:23;17.80;99.90
20370;DHT22;10344;47.592;9.600;2023-07-31T00:34:49;17.90;99.90
20370;DHT22;10344;47.592;9.600;2023-07-31T00:37:17;17.90;99.90
20370;DHT22;10344;47.592;9.600;2023-07-31T00:39:42;18.00;99.90
20370;DHT22;10344;47.592;9.600;2023-07-31T00:42:08;18.00;99.90
20370;DHT22;10344;47.592;9.600;2023-07-31T00:44:36;18.00;99.90
20370;DHT22;10344;47.592;9.600;2023-07-31T00:47:05;18.00;99.90
20370;DHT22;10344;47.592;9.600;2023-07-31T00:49:35;18.20;99.90
20370;DHT22;10344;47.592;9.600;2023-07-31T00:52:03;18.30;99.90
20370;DHT22;10344;47.592;9.600;2023-07-31T00:54:31;18.20;99.90
20370;DHT22;10344;47.592;9.600;2023-07-31T00:56:56;18.20;99.90
20370;DHT22;10344;47.592;9.600;2023-07-31T00:59:22;18.20;99.90
20370;DHT22;10344;47.592;9.600;2023-07-31T01:01:48;18.20;99.90
20370;DHT22;10344;47.592;9.600;2023-07-31T01:04:15;18.20;99.90
20370;DHT22;10344;47.592;9.600;2023-07-31T01:09:34;18.20;99.90
20370;DHT22;10344;47.592;9.600;2023-07-31T01:12:03;18.20;99.90
20370;DHT22;10344;47.592;9.600;2023-07-31T01:14:29;18.20;99.90
20370;DHT22;10344;47.592;9.600;2023-07-31T01:16:58;18.20;99.90
20370;DHT22;10344;47.592;9.600;2023-07-31T01:19:29;18.30;99.90
20370;DHT22;10344;47.592;9.600;2023-07-31T01:22:12;18.40;99.90
20370;DHT22;10344;47.592;9.600;2023-07-31T01:27:28;18.40;99.90
20370;DHT22;10344;47.592;9.600;2023-07-31T01:30:17;18.50;99.90
20370;DHT22;10344;47.592;9.600;2023-07-31T01:32:48;18.50;99.90
20370;DHT22;10344;47.592;9.600;2023-07-31T01:35:15;18.40;99.90
20370;DHT22;10344;47.592;9.600;2023-07-31T01:37:41;18.40;99.90
20370;DHT22;10344;47.592;9.600;2023-07-31T01:40:08;18.40;99.90
20370;DHT22;10344;47.592;9.600;2023-07-31T01:42:36;18.40;99.90
20370;DHT22;10344;47.592;9.600;2023-07-31T01:45:02;18.40;99.90
20370;DHT22;10344;47.592;9.600;2023-07-31T01:47:31;18.40;99.90
20370;DHT22;10344;47.592;9.600;2023-07-31T01:49:56;18.40;99.90
20370;DHT22;10344;47.592;9.600;2023-07-31T01:52:24;18.30;99.90
20370;DHT22;10344;47.592;9.600;2023-07-31T01:54:52;18.20;99.90
20370;DHT22;10344;47.592;9.600;2023-07-31T01:57:20;18.20;99.90
20370;DHT22;10344;47.592;9.600;2023-07-31T01:59:48;18.10;99.90
20370;DHT22;10344;47.592;9.600;2023-07-31T02:02:13;18.10;99.90
20370;DHT22;10344;47.592;9.600;2023-07-31T02:04:39;18.10;99.90
20370;DHT22;10344;47.592;9.600;2023-07-31T02:07:08;18.10;99.90
20370;DHT22;10344;47.592;9.600;2023-07-31T02:09:34;18.00;99.90
20370;DHT22;10344;47.592;9.600;2023-07-31T02:11:59;18.10;99.90
20370;DHT22;10344;47.592;9.600;2023-07-31T02:14:25;18.00;99.90
20370;DHT22;10344;47.592;9.600;2023-07-31T02:16:52;17.90;99.90
20370;DHT22;10344;47.592;9.600;2023-07-31T02:19:20;18.00;99.90
20370;DHT22;10344;47.592;9.600;2023-07-31T02:21:46;17.90;99.90
20370;DHT22;10344;47.592;9.600;2023-07-31T02:24:11;17.80;99.90
20370;DHT22;10344;47.592;9.600;2023-07-31T02:26:37;17.80;99.90
20370;DHT22;10344;47.592;9.600;2023-07-31T02:29:03;17.70;99.90
20370;DHT22;10344;47.592;9.600;2023-07-31T02:31:28;17.70;99.90
20370;DHT22;10344;47.592;9.600;2023-07-31T02:33:56;17.60;99.90
20370;DHT22;10344;47.592;9.600;2023-07-31T02:36:22;17.50;99.90
20370;DHT22;10344;47.592;9.600;2023-07-31T02:38:50;17.40;99.90
20370;DHT22;10344;47.592;9.600;2023-07-31T02:41:18;17.40;99.90
20370;DHT22;10344;47.592;9.600;2023-07-31T02:43:43;17.30;99.90
20370;DHT22;10344;47.592;9.600;2023-07-31T02:46:09;17.30;99.90
20370;DHT22;10344;47.592;9.600;2023-07-31T02:48:35;17.40;99.90
20370;DHT22;10344;47.592;9.600;2023-07-31T02:51:05;17.40;99.90
20370;DHT22;10344;47.592;9.600;2023-07-31T02:53:31;17.30;99.90
20370;DHT22;10344;47.592;9.600;2023-07-31T02:56:01;17.40;99.90
20370;DHT22;10344;47.592;9.600;2023-07-31T02:58:29;17.40;99.90
20370;DHT22;10344;47.592;9.600;2023-07-31T03:00:54;17.40;99.90
20370;DHT22;10344;47.592;9.600;2023-07-31T03:03:20;17.40;99.90
20370;DHT22;10344;47.592;9.600;2023-07-31T03:05:45;17.40;99.90
20370;DHT22;10344;47.592;9.600;2023-07-31T03:08:16;17.40;99.90
20370;DHT22;10344;47.592;9.600;2023-07-31T03:10:44;17.30;99.90
20370;DHT22;10344;47.592;9.600;2023-07-31T03:13:09;17.40;99.90
20370;DHT22;10344;47.592;9.600;2023-07-31T03:15:37;17.30;99.90
20370;DHT22;10344;47.592;9.600;2023-07-31T03:18:03;17.30;99.90
20370;DHT22;10344;47.592;9.600;2023-07-31T03:20:33;17.30;99.90
20370;DHT22;10344;47.592;9.600;2023-07-31T03:22:58;17.30;99.90
20370;DHT22;10344;47.592;9.600;2023-07-31T03:25:26;17.40;99.90
20370;DHT22;10344;47.592;9.600;2023-07-31T03:27:52;17.40;99.90
20370;DHT22;10344;47.592;9.600;2023-07-31T03:30:20;17.40;99.90
20370;DHT22;10344;47.592;9.600;2023-07-31T03:32:45;17.30;99.90
20370;DHT22;10344;47.592;9.600;2023-07-31T03:35:13;17.30;99.90
20370;DHT22;10344;47.592;9.600;2023-07-31T03:37:39;17.30;99.90
20370;DHT22;10344;47.592;9.600;2023-07-31T03:40:05;17.40;99.90
20370;DHT22;10344;47.592;9.600;2023-07-31T03:42:31;17.40;99.90
20370;DHT22;10344;47.592;9.600;2023-07-31T03:44:59;17.40;99.90
20370;DHT22;10344;47.592;9.600;2023-07-31T03:47:24;17.40;99.90
20370;DHT22;10344;47.592;9.600;2023-07-31T03:49:50;17.30;99.90
20370;DHT22;10344;47.592;9.600;2023-07-31T03:52:18;17.30;99.90
20370;DHT22;10344;47.592;9.600;2023-07-31T03:54:43;17.30;99.90
20370;DHT22;10344;47.592;9.600;2023-07-31T03:57:12;17.30;99.90
20370;DHT22;10344;47.592;9.600;2023-07-31T03:59:38;17.30;99.90
20370;DHT22;10344;47.592;9.600;2023-07-31T04:02:04;17.30;99.90
20370;DHT22;10344;47.592;9.600;2023-07-31T04:04:30;17.30;99.90
20370;DHT22;10344;47.592;9.600;2023-07-31T04:06:56;17.30;99.90
20370;DHT22;10344;47.592;9.600;2023-07-31T04:09:23;17.30;99.90
20370;DHT22;10344;47.592;9.600;2023-07-31T04:11:49;17.30;99.90
20370;DHT22;10344;47.592;9.600;2023-07-31T04:14:15;17.20;99.90
20370;DHT22;10344;47.592;9.600;2023-07-31T04:16:40;17.20;99.90
20370;DHT22;10344;47.592;9.600;2023-07-31T04:19:08;17.10;99.90
20370;DHT22;10344;47.592;9.600;2023-07-31T04:21:35;17.10;99.90
20370;DHT22;10344;47.592;9.600;2023-07-31T04:24:01;17.10;99.90
20370;DHT22;10344;47.592;9.600;2023-07-31T04:26:29;17.00;99.90
20370;DHT22;10344;47.592;9.600;2023-07-31T04:28:55;17.00;99.90
20370;DHT22;10344;47.592;9.600;2023-07-31T04:31:20;17.00;99.90
20370;DHT22;10344;47.592;9.600;2023-07-31T04:33:46;17.00;99.90
20370;DHT22;10344;47.592;9.600;2023-07-31T04:36:11;17.00;99.90
20370;DHT22;10344;47.592;9.600;2023-07-31T04:38:37;17.00;99.90
20370;DHT22;10344;47.592;9.600;2023-07-31T04:41:03;17.10;99.90
20370;DHT22;10344;47.592;9.600;2023-07-31T04:43:29;17.10;99.90
20370;DHT22;10344;47.592;9.600;2023-07-31T04:45:54;17.10;99.90
20370;DHT22;10344;47.592;9.600;2023-07-31T04:48:22;17.10;99.90
20370;DHT22;10344;47.592;9.600;2023-07-31T04:50:48;17.20;99.90
20370;DHT22;10344;47.592;9.600;2023-07-31T04:53:13;17.20;99.90
20370;DHT22;10344;47.592;9.600;2023-07-31T04:55:39;17.30;99.90
20370;DHT22;10344;47.592;9.600;2023-07-31T04:58:05;17.40;99.90
20370;DHT22;10344;47.592;9.600;2023-07-31T05:00:35;17.40;99.90
20370;DHT22;10344;47.592;9.600;2023-07-31T05:03:03;17.50;99.90
20370;DHT22;10344;47.592;9.600;2023-07-31T05:05:28;17.60;99.90
20370;DHT22;10344;47.592;9.600;2023-07-31T05:07:56;17.60;99.90
20370;DHT22;10344;47.592;9.600;2023-07-31T05:10:22;17.60;99.90
20370;DHT22;10344;47.592;9.600;2023-07-31T05:12:48;17.70;99.90
20370;DHT22;10344;47.592;9.600;2023-07-31T05:15:13;17.80;99.90
20370;DHT22;10344;47.592;9.600;2023-07-31T05:17:39;17.80;99.90
20370;DHT22;10344;47.592;9.600;2023-07-31T05:20:05;17.90;99.90
20370;DHT22;10344;47.592;9.600;2023-07-31T05:22:33;17.90;99.90
20370;DHT22;10344;47.592;9.600;2023-07-31T05:25:01;18.00;99.90
20370;DHT22;10344;47.592;9.600;2023-07-31T05:27:27;18.00;99.90
20370;DHT22;10344;47.592;9.600;2023-07-31T05:29:52;18.10;99.90
20370;DHT22;10344;47.592;9.600;2023-07-31T05:32:18;18.20;99.90
20370;DHT22;10344;47.592;9.600;2023-07-31T05:34:44;18.20;99.90
20370;DHT22;10344;47.592;9.600;2023-07-31T05:37:10;18.30;99.90
20370;DHT22;10344;47.592;9.600;2023-07-31T05:39:36;18.20;99.90
20370;DHT22;10344;47.592;9.600;2023-07-31T05:42:04;18.30;99.90
20370;DHT22;10344;47.592;9.600;2023-07-31T05:44:30;18.40;99.90
20370;DHT22;10344;47.592;9.600;2023-07-31T05:46:56;18.50;99.90
20370;DHT22;10344;47.592;9.600;2023-07-31T05:49:21;18.60;99.90
20370;DHT22;10344;47.592;9.600;2023-07-31T05:51:47;18.70;99.90
20370;DHT22;10344;47.592;9.600;2023-07-31T05:54:12;18.80;99.90
20370;DHT22;10344;47.592;9.600;2023-07-31T05:56:38;18.90;99.90
20370;DHT22;10344;47.592;9.600;2023-07-31T05:59:04;18.90;99.90
20370;DHT22;10344;47.592;9.600;2023-07-31T06:01:30;19.00;99.90
20370;DHT22;10344;47.592;9.600;2023-07-31T06:04:00;19.00;99.90
20370;DHT22;10344;47.592;9.600;2023-07-31T06:06:28;19.00;99.90
20370;DHT22;10344;47.592;9.600;2023-07-31T06:08:53;19.10;99.90
20370;DHT22;10344;47.592;9.600;2023-07-31T06:11:24;19.10;99.90
20370;DHT22;10344;47.592;9.600;2023-07-31T06:13:49;19.10;99.90
20370;DHT22;10344;47.592;9.600;2023-07-31T06:16:15;19.10;99.90
20370;DHT22;10344;47.592;9.600;2023-07-31T06:18:43;19.00;99.90
20370;DHT22;10344;47.592;9.600;2023-07-31T06:21:11;19.10;99.90
20370;DHT22;10344;47.592;9.600;2023-07-31T06:23:37;19.00;99.90
20370;DHT22;10344;47.592;9.600;2023-07-31T06:26:05;19.00;99.90
20370;DHT22;10344;47.592;9.600;2023-07-31T06:28:31;19.00;99.90
20370;DHT22;10344;47.592;9.600;2023-07-31T06:31:02;19.10;99.90
20370;DHT22;10344;47.592;9.600;2023-07-31T06:33:28;19.10;99.90
20370;DHT22;10344;47.592;9.600;2023-07-31T06:35:54;19.10;99.90
20370;DHT22;10344;47.592;9.600;2023-07-31T06:38:25;19.10;99.90
20370;DHT22;10344;47.592;9.600;2023-07-31T06:40:54;19.20;99.90
20370;DHT22;10344;47.592;9.600;2023-07-31T06:43:22;19.30;99.90
20370;DHT22;10344;47.592;9.600;2023-07-31T06:45:48;19.50;99.90
20370;DHT22;10344;47.592;9.600;2023-07-31T06:48:16;19.60;99.90
20370;DHT22;10344;47.592;9.600;2023-07-31T06:50:42;19.70;99.90
20370;DHT22;10344;47.592;9.600;2023-07-31T06:53:10;19.90;99.90
20370;DHT22;10344;47.592;9.600;2023-07-31T06:55:36;20.00;99.90
20370;DHT22;10344;47.592;9.600;2023-07-31T06:58:03;20.00;99.90
20370;DHT22;10344;47.592;9.600;2023-07-31T07:00:30;20.00;99.90
20370;DHT22;10344;47.592;9.600;2023-07-31T07:02:56;20.00;99.90
20370;DHT22;10344;47.592;9.600;2023-07-31T07:05:24;20.10;99.90
20370;DHT22;10344;47.592;9.600;2023-07-31T07:07:50;20.40;99.90
20370;DHT22;10344;47.592;9.600;2023-07-31T07:10:17;20.50;99.90
20370;DHT22;10344;47.592;9.600;2023-07-31T07:12:48;20.60;99.90
20370;DHT22;10344;47.592;9.600;2023-07-31T07:15:16;20.60;99.90
20370;DHT22;10344;47.592;9.600;2023-07-31T07:17:46;20.60;99.90
20370;DHT22;10344;47.592;9.600;2023-07-31T07:20:12;20.60;99.90
20370;DHT22;10344;47.592;9.600;2023-07-31T07:22:42;20.60;99.90
20370;DHT22;10344;47.592;9.600;2023-07-31T07:25:11;20.70;99.90
20370;DHT22;10344;47.592;9.600;2023-07-31T07:27:36;20.80;99.90
20370;DHT22;10344;47.592;9.600;2023-07-31T07:30:02;21.00;99.90
20370;DHT22;10344;47.592;9.600;2023-07-31T07:32:29;21.10;99.90
20370;DHT22;10344;47.592;9.600;2023-07-31T07:34:55;21.10;99.90
20370;DHT22;10344;47.592;9.600;2023-07-31T07:37:23;21.20;99.90
20370;DHT22;10344;47.592;9.600;2023-07-31T07:39:51;21.20;99.90
20370;DHT22;10344;47.592;9.600;2023-07-31T07:42:18;21.10;99.90
20370;DHT22;10344;47.592;9.600;2023-07-31T07:44:46;21.10;99.90
20370;DHT22;10344;47.592;9.600;2023-07-31T07:47:14;21.10;99.90
20370;DHT22;10344;47.592;9.600;2023-07-31T07:49:42;21.60;99.90
20370;DHT22;10344;47.592;9.600;2023-07-31T07:52:07;22.20;99.90
20370;DHT22;10344;47.592;9.600;2023-07-31T07:54:36;22.50;99.90
20370;DHT22;10344;47.592;9.600;2023-07-31T07:57:01;22.80;99.90
20370;DHT22;10344;47.592;9.600;2023-07-31T07:59:27;23.30;99.90
20370;DHT22;10344;47.592;9.600;2023-07-31T08:01:53;24.30;99.90
20370;DHT22;10344;47.592;9.600;2023-07-31T08:04:20;25.60;99.90
20370;DHT22;10344;47.592;9.600;2023-07-31T08:06:46;26.60;99.90
20370;DHT22;10344;47.592;9.600;2023-07-31T08:09:14;26.90;99.90
20370;DHT22;10344;47.592;9.600;2023-07-31T08:11:39;26.30;99.90
20370;DHT22;10344;47.592;9.600;2023-07-31T08:14:05;25.60;99.90
20370;DHT22;10344;47.592;9.600;2023-07-31T08:16:31;24.90;99.90
20370;DHT22;10344;47.592;9.600;2023-07-31T08:18:58;24.70;99.90
20370;DHT22;10344;47.592;9.600;2023-07-31T08:21:24;24.80;99.90
20370;DHT22;10344;47.592;9.600;2023-07-31T08:23:52;25.00;99.90
20370;DHT22;10344;47.592;9.600;2023-07-31T08:26:18;25.60;99.90
20370;DHT22;10344;47.592;9.600;2023-07-31T08:28:45;26.00;99.90
20370;DHT22;10344;47.592;9.600;2023-07-31T08:31:13;26.30;99.90
20370;DHT22;10344;47.592;9.600;2023-07-31T08:33:41;26.50;99.90
20370;DHT22;10344;47.592;9.600;2023-07-31T08:36:07;27.30;99.90
20370;DHT22;10344;47.592;9.600;2023-07-31T08:38:33;28.30;99.90
20370;DHT22;10344;47.592;9.600;2023-07-31T08:40:59;29.10;99.90
20370;DHT22;10344;47.592;9.600;2023-07-31T08:43:26;29.60;99.90
20370;DHT22;10344;47.592;9.600;2023-07-31T08:45:52;29.70;99.90
20370;DHT22;10344;47.592;9.600;2023-07-31T08:48:18;29.60;99.90
20370;DHT22;10344;47.592;9.600;2023-07-31T08:50:44;29.80;99.90
20370;DHT22;10344;47.592;9.600;2023-07-31T08:53:13;29.50;99.90
20370;DHT22;10344;47.592;9.600;2023-07-31T08:55:38;29.20;99.90
20370;DHT22;10344;47.592;9.600;2023-07-31T08:58:04;29.30;99.90
20370;DHT22;10344;47.592;9.600;2023-07-31T09:00:33;29.70;99.90
20370;DHT22;10344;47.592;9.600;2023-07-31T09:03:06;30.10;99.90
20370;DHT22;10344;47.592;9.600;2023-07-31T09:05:35;30.30;99.90
20370;DHT22;10344;47.592;9.600;2023-07-31T09:08:04;30.60;99.90
20370;DHT22;10344;47.592;9.600;2023-07-31T09:10:30;30.80;99.90
20370;DHT22;10344;47.592;9.600;2023-07-31T09:12:56;30.80;99.90
20370;DHT22;10344;47.592;9.600;2023-07-31T09:15:24;30.60;99.90
20370;DHT22;10344;47.592;9.600;2023-07-31T09:17:59;30.80;99.90
20370;DHT22;10344;47.592;9.600;2023-07-31T09:20:28;30.90;99.90
20370;DHT22;10344;47.592;9.600;2023-07-31T09:22:58;30.80;99.90
20370;DHT22;10344;47.592;9.600;2023-07-31T09:25:32;30.80;99.90
20370;DHT22;10344;47.592;9.600;2023-07-31T09:28:01;31.00;99.90
20370;DHT22;10344;47.592;9.600;2023-07-31T09:30:30;31.00;99.90
20370;DHT22;10344;47.592;9.600;2023-07-31T09:33:06;30.60;99.90
20370;DHT22;10344;47.592;9.600;2023-07-31T09:35:35;30.50;99.90
20370;DHT22;10344;47.592;9.600;2023-07-31T09:38:05;30.60;99.90
20370;DHT22;10344;47.592;9.600;2023-07-31T09:43:02;30.70;99.90
20370;DHT22;10344;47.592;9.600;2023-07-31T09:45:34;30.90;99.90
20370;DHT22;10344;47.592;9.600;2023-07-31T09:48:00;30.30;99.90
20370;DHT22;10344;47.592;9.600;2023-07-31T09:50:25;29.50;99.90
20370;DHT22;10344;47.592;9.600;2023-07-31T09:52:54;28.70;99.90
20370;DHT22;10344;47.592;9.600;2023-07-31T09:55:22;28.60;99.90
20370;DHT22;10344;47.592;9.600;2023-07-31T09:57:49;28.50;99.90
20370;DHT22;10344;47.592;9.600;2023-07-31T10:00:17;28.60;99.90
20370;DHT22;10344;47.592;9.600;2023-07-31T10:02:47;28.30;99.90
20370;DHT22;10344;47.592;9.600;2023-07-31T10:05:15;27.50;99.90
20370;DHT22;10344;47.592;9.600;2023-07-31T10:07:45;26.60;99.90
20370;DHT22;10344;47.592;9.600;2023-07-31T10:10:19;26.50;99.90
20370;DHT22;10344;47.592;9.600;2023-07-31T10:12:52;26.90;99.90
20370;DHT22;10344;47.592;9.600;2023-07-31T10:15:18;27.40;99.90
20370;DHT22;10344;47.592;9.600;2023-07-31T10:17:47;27.80;99.90
20370;DHT22;10344;47.592;9.600;2023-07-31T10:20:14;27.90;99.90
20370;DHT22;10344;47.592;9.600;2023-07-31T10:22:42;28.40;99.90
20370;DHT22;10344;47.592;9.600;2023-07-31T10:25:15;28.80;99.90
20370;DHT22;10344;47.592;9.600;2023-07-31T10:27:44;29.00;99.90
20370;DHT22;10344;47.592;9.600;2023-07-31T10:30:15;29.10;99.90
20370;DHT22;10344;47.592;9.600;2023-07-31T10:32:43;29.30;99.90
20370;DHT22;10344;47.592;9.600;2023-07-31T10:35:09;29.30;99.90
20370;DHT22;10344;47.592;9.600;2023-07-31T10:37:39;29.40;99.90
20370;DHT22;10344;47.592;9.600;2023-07-31T10:40:11;29.40;99.90
20370;DHT22;10344;47.592;9.600;2023-07-31T10:45:11;29.30;99.90
20370;DHT22;10344;47.592;9.600;2023-07-31T10:47:37;29.50;99.90
20370;DHT22;10344;47.592;9.600;2023-07-31T10:52:37;29.80;99.90
20370;DHT22;10344;47.592;9.600;2023-07-31T10:57:47;29.90;99.90
20370;DHT22;10344;47.592;9.600;2023-07-31T11:00:25;30.10;99.90
20370;DHT22;10344;47.592;9.600;2023-07-31T11:03:13;30.30;99.90
20370;DHT22;10344;47.592;9.600;2023-07-31T11:08:17;29.70;99.90
20370;DHT22;10344;47.592;9.600;2023-07-31T11:10:48;29.40;99.90
20370;DHT22;10344;47.592;9.600;2023-07-31T11:13:18;29.00;99.90
20370;DHT22;10344;47.592;9.600;2023-07-31T11:15:44;28.40;99.90
20370;DHT22;10344;47.592;9.600;2023-07-31T11:18:09;28.00;99.90
20370;DHT22;10344;47.592;9.600;2023-07-31T11:20:37;27.90;99.90
20370;DHT22;10344;47.592;9.600;2023-07-31T11:23:06;27.90;99.90
20370;DHT22;10344;47.592;9.600;2023-07-31T11:25:35;27.60;99.90
20370;DHT22;10344;47.592;9.600;2023-07-31T11:28:08;27.40;99.90
20370;DHT22;10344;47.592;9.600;2023-07-31T11:30:34;27.20;99.90
20370;DHT22;10344;47.592;9.600;2023-07-31T11:33:04;27.00;99.90
20370;DHT22;10344;47.592;9.600;2023-07-31T11:38:32;27.00;99.90
20370;DHT22;10344;47.592;9.600;2023-07-31T11:41:02;27.10;99.90
20370;DHT22;10344;47.592;9.600;2023-07-31T11:43:33;26.90;99.90
20370;DHT22;10344;47.592;9.600;2023-07-31T11:46:02;26.90;99.90
20370;DHT22;10344;47.592;9.600;2023-07-31T11:48:36;26.80;99.90
20370;DHT22;10344;47.592;9.600;2023-07-31T11:51:04;26.60;99.90
20370;DHT22;10344;47.592;9.600;2023-07-31T11:56:07;26.70;99.90
20370;DHT22;10344;47.592;9.600;2023-07-31T11:58:34;26.90;99.90
20370;DHT22;10344;47.592;9.600;2023-07-31T12:01:00;27.10;99.90
20370;DHT22;10344;47.592;9.600;2023-07-31T12:03:26;27.30;99.90
20370;DHT22;10344;47.592;9.600;2023-07-31T12:05:54;27.40;99.90
20370;DHT22;10344;47.592;9.600;2023-07-31T12:08:21;27.50;99.90
20370;DHT22;10344;47.592;9.600;2023-07-31T12:10:52;27.40;99.90
20370;DHT22;10344;47.592;9.600;2023-07-31T12:13:24;27.10;99.90
20370;DHT22;10344;47.592;9.600;2023-07-31T12:15:54;26.90;99.90
20370;DHT22;10344;47.592;9.600;2023-07-31T12:18:19;26.70;99.90
20370;DHT22;10344;47.592;9.600;2023-07-31T12:20:58;26.70;99.90
20370;DHT22;10344;47.592;9.600;2023-07-31T12:23:27;27.00;99.90
20370;DHT22;10344;47.592;9.600;2023-07-31T12:28:45;27.40;99.90
20370;DHT22;10344;47.592;9.600;2023-07-31T12:31:15;27.50;99.90
20370;DHT22;10344;47.592;9.600;2023-07-31T12:33:42;27.70;99.90
20370;DHT22;10344;47.592;9.600;2023-07-31T12:36:12;28.00;99.90
20370;DHT22;10344;47.592;9.600;2023-07-31T12:38:38;28.20;99.90
20370;DHT22;10344;47.592;9.600;2023-07-31T12:41:06;28.50;99.90
20370;DHT22;10344;47.592;9.600;2023-07-31T12:43:32;28.70;99.90
20370;DHT22;10344;47.592;9.600;2023-07-31T12:45:58;28.80;99.90
20370;DHT22;10344;47.592;9.600;2023-07-31T12:48:24;28.70;99.90
20370;DHT22;10344;47.592;9.600;2023-07-31T12:50:49;28.50;99.90
20370;DHT22;10344;47.592;9.600;2023-07-31T12:53:15;28.40;99.90
20370;DHT22;10344;47.592;9.600;2023-07-31T12:55:41;28.40;99.90
20370;DHT22;10344;47.592;9.600;2023-07-31T12:58:06;28.90;99.90
20370;DHT22;10344;47.592;9.600;2023-07-31T13:00:32;29.20;99.90
20370;DHT22;10344;47.592;9.600;2023-07-31T13:02:58;29.50;99.90
20370;DHT22;10344;47.592;9.600;2023-07-31T13:05:24;29.80;99.90
20370;DHT22;10344;47.592;9.600;2023-07-31T13:07:52;30.00;99.90
20370;DHT22;10344;47.592;9.600;2023-07-31T13:10:18;30.10;99.90
20370;DHT22;10344;47.592;9.600;2023-07-31T13:12:43;30.00;99.90
20370;DHT22;10344;47.592;9.600;2023-07-31T13:15:09;29.90;99.90
20370;DHT22;10344;47.592;9.600;2023-07-31T13:17:36;29.80;99.90
20370;DHT22;10344;47.592;9.600;2023-07-31T13:20:05;29.60;99.90
20370;DHT22;10344;47.592;9.600;2023-07-31T13:22:31;29.30;99.90
20370;DHT22;10344;47.592;9.600;2023-07-31T13:24:59;29.10;99.90
20370;DHT22;10344;47.592;9.600;2023-07-31T13:27:24;29.10;99.90
20370;DHT22;10344;47.592;9.600;2023-07-31T13:29:51;29.30;99.90
20370;DHT22;10344;47.592;9.600;2023-07-31T13:32:20;29.60;99.90
20370;DHT22;10344;47.592;9.600;2023-07-31T13:34:46;29.90;99.90
20370;DHT22;10344;47.592;9.600;2023-07-31T13:37:12;30.00;99.90
20370;DHT22;10344;47.592;9.600;2023-07-31T13:39:38;29.90;99.90
20370;DHT22;10344;47.592;9.600;2023-07-31T13:42:07;29.90;99.90
20370;DHT22;10344;47.592;9.600;2023-07-31T13:44:35;29.90;99.90
20370;DHT22;10344;47.592;9.600;2023-07-31T13:50:57;29.60;99.90
20370;DHT22;10344;47.592;9.600;2023-07-31T13:53:23;29.60;99.90
20370;DHT22;10344;47.592;9.600;2023-07-31T13:55:48;29.70;99.90
20370;DHT22;10344;47.592;9.600;2023-07-31T13:58:21;29.80;99.90
20370;DHT22;10344;47.592;9.600;2023-07-31T14:00:46;29.80;99.90
20370;DHT22;10344;47.592;9.600;2023-07-31T14:03:14;29.70;99.90
20370;DHT22;10344;47.592;9.600;2023-07-31T14:05:40;29.70;99.90
20370;DHT22;10344;47.592;9.600;2023-07-31T14:08:05;29.70;99.90
20370;DHT22;10344;47.592;9.600;2023-07-31T14:10:31;29.80;99.90
20370;DHT22;10344;47.592;9.600;2023-07-31T14:12:57;29.60;99.90
20370;DHT22;10344;47.592;9.600;2023-07-31T14:15:22;29.40;99.90
20370;DHT22;10344;47.592;9.600;2023-07-31T14:17:48;29.50;99.90
20370;DHT22;10344;47.592;9.600;2023-07-31T14:20:13;29.20;99.80
20370;DHT22;10344;47.592;9.600;2023-07-31T14:22:39;28.90;99.90
20370;DHT22;10344;47.592;9.600;2023-07-31T14:25:07;28.60;99.90
20370;DHT22;10344;47.592;9.600;2023-07-31T14:27:35;28.40;99.90
20370;DHT22;10344;47.592;9.600;2023-07-31T14:30:01;28.30;99.90
20370;DHT22;10344;47.592;9.600;2023-07-31T14:32:26;28.50;99.90
20370;DHT22;10344;47.592;9.600;2023-07-31T14:34:54;29.10;99.90
20370;DHT22;10344;47.592;9.600;2023-07-31T14:37:20;29.40;98.90
20370;DHT22;10344;47.592;9.600;2023-07-31T14:39:46;29.30;99.90
20370;DHT22;10344;47.592;9.600;2023-07-31T14:42:15;29.10;99.90
20370;DHT22;10344;47.592;9.600;2023-07-31T14:44:41;28.90;99.90
20370;DHT22;10344;47.592;9.600;2023-07-31T14:47:07;28.60;99.90
20370;DHT22;10344;47.592;9.600;2023-07-31T14:49:35;28.30;99.90
20370;DHT22;10344;47.592;9.600;2023-07-31T14:52:00;28.20;99.90
20370;DHT22;10344;47.592;9.600;2023-07-31T14:54:26;28.20;99.90
20370;DHT22;10344;47.592;9.600;2023-07-31T14:56:51;28.30;99.90
20370;DHT22;10344;47.592;9.600;2023-07-31T14:59:17;28.60;99.90
20370;DHT22;10344;47.592;9.600;2023-07-31T15:01:42;28.60;99.90
20370;DHT22;10344;47.592;9.600;2023-07-31T15:04:08;28.70;99.90
20370;DHT22;10344;47.592;9.600;2023-07-31T15:06:36;28.70;99.90
20370;DHT22;10344;47.592;9.600;2023-07-31T15:09:01;28.40;99.90
20370;DHT22;10344;47.592;9.600;2023-07-31T15:11:27;28.00;99.90
20370;DHT22;10344;47.592;9.600;2023-07-31T15:13:52;27.60;99.90
20370;DHT22;10344;47.592;9.600;2023-07-31T15:16:18;27.30;99.90
20370;DHT22;10344;47.592;9.600;2023-07-31T15:18:45;27.10;99.90
20370;DHT22;10344;47.592;9.600;2023-07-31T15:21:10;26.80;99.90
20370;DHT22;10344;47.592;9.600;2023-07-31T15:23:36;26.50;99.90
20370;DHT22;10344;47.592;9.600;2023-07-31T15:26:03;26.40;99.90
20370;DHT22;10344;47.592;9.600;2023-07-31T15:28:31;26.30;99.90
20370;DHT22;10344;47.592;9.600;2023-07-31T15:30:59;26.30;99.90
20370;DHT22;10344;47.592;9.600;2023-07-31T15:33:25;26.30;99.90
20370;DHT22;10344;47.592;9.600;2023-07-31T15:35:50;26.30;99.90
20370;DHT22;10344;47.592;9.600;2023-07-31T15:38:20;26.40;99.90
20370;DHT22;10344;47.592;9.600;2023-07-31T15:40:46;26.40;99.90
20370;DHT22;10344;47.592;9.600;2023-07-31T15:43:13;26.40;99.90
20370;DHT22;10344;47.592;9.600;2023-07-31T15:45:39;26.40;99.90
20370;DHT22;10344;47.592;9.600;2023-07-31T15:48:04;26.30;99.90
20370;DHT22;10344;47.592;9.600;2023-07-31T15:50:32;26.30;99.90
20370;DHT22;10344;47.592;9.600;2023-07-31T15:53:02;26.10;99.90
20370;DHT22;10344;47.592;9.600;2023-07-31T15:55:30;26.00;99.90
20370;DHT22;10344;47.592;9.600;2023-07-31T15:57:58;25.80;99.90
20370;DHT22;10344;47.592;9.600;2023-07-31T16:00:24;25.70;99.90